createdAt,value
2018-07-19T00:01:44.526Z,81.20
2018-07-19T00:04:12.902Z,79.71
2018-07-19T00:06:42.286Z,82.31
2018-07-19T00:09:11.386Z,80.66
2018-07-19T00:11:40.997Z,80.55
2018-07-19T00:14:09.843Z,81.09
2018-07-19T00:16:39.885Z,80.52
2018-07-19T00:19:08.398Z,80.54
2018-07-19T00:21:36.828Z,82.01
2018-07-19T00:24:05.181Z,81.64
2018-07-19T00:26:33.541Z,85.32
2018-07-19T00:29:01.908Z,82.30
2018-07-19T00:31:30.277Z,82.21
2018-07-19T00:33:58.714Z,81.67
2018-07-19T00:36:27.017Z,81.27
2018-07-19T00:38:55.448Z,80.92
2018-07-19T00:41:23.961Z,82.19
2018-07-19T00:43:52.346Z,82.43
2018-07-19T00:46:20.814Z,82.28
2018-07-19T00:48:50.517Z,81.57
2018-07-19T00:51:19.575Z,82.56
2018-07-19T00:53:49.082Z,81.21
2018-07-19T00:56:19.670Z,83.25
2018-07-19T00:58:48.781Z,82.04
2018-07-19T01:01:17.742Z,81.83
2018-07-19T01:03:46.114Z,81.51
2018-07-19T01:06:14.592Z,82.42
2018-07-19T01:08:42.965Z,83.99
2018-07-19T01:11:11.950Z,82.00
2018-07-19T01:13:41.464Z,81.89
2018-07-19T01:16:10.805Z,82.14
2018-07-19T01:18:39.885Z,82.81
2018-07-19T01:21:08.894Z,82.87
2018-07-19T01:23:37.253Z,82.98
2018-07-19T01:26:05.721Z,82.92
2018-07-19T01:28:34.085Z,83.02
2018-07-19T01:31:02.442Z,83.80
2018-07-19T01:33:30.801Z,83.13
2018-07-19T01:35:59.169Z,82.38
2018-07-19T01:38:28.412Z,82.29
2018-07-19T01:40:57.692Z,84.46
2018-07-19T01:43:27.032Z,84.40
2018-07-19T01:45:56.433Z,84.47
2018-07-19T01:48:24.769Z,83.28
2018-07-19T01:50:53.135Z,83.64
2018-07-19T01:53:21.510Z,85.56
2018-07-19T01:55:50.342Z,85.32
2018-07-19T01:58:19.785Z,84.52
2018-07-19T02:00:48.872Z,84.66
2018-07-19T02:03:17.774Z,85.63
2018-07-19T02:05:46.174Z,85.21
2018-07-19T02:08:14.638Z,84.88
2018-07-19T02:10:42.998Z,84.58
2018-07-19T02:13:12.277Z,85.29
2018-07-19T02:15:41.329Z,83.67
2018-07-19T02:18:11.399Z,84.82
2018-07-19T02:20:40.745Z,84.95
2018-07-19T02:23:11.199Z,86.00
2018-07-19T02:25:40.586Z,85.38
2018-07-19T02:28:09.108Z,85.74
2018-07-19T02:30:37.458Z,86.78
2018-07-19T02:33:06.856Z,86.83
2018-07-19T02:35:36.197Z,86.52
2018-07-19T02:38:05.426Z,86.73
2018-07-19T02:40:33.797Z,87.57
2018-07-19T02:43:02.176Z,88.43
2018-07-19T02:45:31.421Z,87.91
2018-07-19T02:47:59.767Z,88.17
2018-07-19T02:50:29.189Z,88.71
2018-07-19T02:52:58.410Z,87.80
2018-07-19T02:55:26.783Z,87.11
2018-07-19T02:57:55.112Z,87.92
2018-07-19T03:00:23.505Z,88.83
2018-07-19T03:02:52.871Z,88.14
2018-07-19T03:05:22.187Z,87.81
2018-07-19T03:07:50.674Z,88.84
2018-07-19T03:10:19.947Z,88.07
2018-07-19T03:12:49.433Z,88.17
2018-07-19T03:15:17.832Z,88.52
2018-07-19T03:17:46.210Z,87.85
2018-07-19T03:20:15.462Z,88.36
2018-07-19T03:22:44.705Z,87.98
2018-07-19T03:25:13.872Z,87.76
2018-07-19T03:27:42.252Z,87.12
2018-07-19T03:30:11.557Z,86.77
2018-07-19T03:32:40.477Z,85.84
2018-07-19T03:35:09.869Z,86.63
2018-07-19T03:37:39.849Z,87.01
2018-07-19T03:40:09.901Z,86.72
2018-07-19T03:42:38.903Z,85.59
2018-07-19T03:45:07.307Z,86.71
2018-07-19T03:47:35.655Z,86.87
2018-07-19T03:50:04.036Z,87.22
2018-07-19T03:52:33.325Z,85.89
2018-07-19T03:55:01.714Z,85.94
2018-07-19T03:57:31.092Z,85.57
2018-07-19T03:59:59.537Z,85.69
2018-07-19T04:02:28.782Z,85.48
2018-07-19T04:04:57.122Z,86.63
2018-07-19T04:07:25.481Z,87.20
2018-07-19T04:09:53.830Z,86.60
2018-07-19T04:12:23.049Z,85.79
2018-07-19T04:14:52.377Z,85.36
2018-07-19T04:17:21.703Z,85.81
2018-07-19T04:19:51.334Z,84.90
2018-07-19T04:22:21.089Z,84.85
2018-07-19T04:24:50.765Z,85.23
2018-07-19T04:27:20.128Z,84.63
2018-07-19T04:29:49.893Z,84.98
2018-07-19T04:32:19.309Z,84.69
2018-07-19T04:34:47.673Z,84.53
2018-07-19T04:37:16.041Z,84.98
2018-07-19T04:39:45.325Z,84.78
2018-07-19T04:42:14.568Z,83.91
2018-07-19T04:44:43.905Z,83.79
2018-07-19T04:47:13.269Z,84.10
2018-07-19T04:49:42.533Z,84.62
2018-07-19T04:52:11.842Z,85.10
2018-07-19T04:54:42.093Z,84.50
2018-07-19T04:57:12.028Z,84.78
2018-07-19T04:59:41.833Z,83.49
2018-07-19T05:02:11.590Z,83.01
2018-07-19T05:04:40.208Z,83.25
2018-07-19T05:07:08.966Z,83.40
2018-07-19T05:09:38.220Z,83.10
2018-07-19T05:12:07.453Z,83.77
2018-07-19T05:14:36.817Z,82.76
2018-07-19T05:17:06.060Z,83.24
2018-07-19T05:19:35.454Z,83.74
2018-07-19T05:22:03.900Z,83.50
2018-07-19T05:24:32.241Z,82.51
2018-07-19T05:27:00.627Z,82.35
2018-07-19T05:29:29.001Z,82.38
2018-07-19T05:31:58.481Z,83.81
2018-07-19T05:34:27.851Z,82.00
2018-07-19T05:36:57.108Z,83.26
2018-07-19T05:39:25.540Z,83.02
2018-07-19T05:41:53.913Z,83.96
2018-07-19T05:44:23.440Z,82.13
2018-07-19T05:46:52.657Z,83.95
2018-07-19T05:49:21.777Z,82.13
2018-07-19T05:51:50.124Z,81.68
2018-07-19T05:54:18.813Z,80.93
2018-07-19T05:56:49.147Z,80.49
2018-07-19T05:59:19.486Z,80.12
2018-07-19T06:01:50.269Z,79.82
2018-07-19T06:04:19.621Z,78.97
2018-07-19T06:06:49.055Z,78.47
2018-07-19T06:09:19.237Z,78.96
2018-07-19T06:11:49.060Z,79.19
2018-07-19T06:14:19.079Z,78.33
2018-07-19T06:16:49.160Z,78.04
2018-07-19T06:19:19.963Z,78.18
2018-07-19T06:21:49.341Z,77.79
2018-07-19T06:24:17.702Z,77.47
2018-07-19T06:26:46.088Z,77.00
2018-07-19T06:29:14.544Z,76.65
2018-07-19T06:31:43.920Z,75.68
2018-07-19T06:34:12.402Z,76.82
2018-07-19T06:36:41.797Z,76.55
2018-07-19T06:39:11.748Z,75.64
2018-07-19T06:41:40.959Z,75.51
2018-07-19T06:44:10.092Z,75.45
2018-07-19T06:46:40.229Z,74.90
2018-07-19T06:49:09.044Z,74.78
2018-07-19T06:51:37.424Z,74.71
2018-07-19T06:54:06.024Z,75.13
2018-07-19T06:56:35.260Z,75.43
2018-07-19T06:59:03.644Z,76.18
2018-07-19T07:01:32.021Z,76.23
2018-07-19T07:04:00.398Z,75.66
2018-07-19T07:06:28.914Z,75.30
2018-07-19T07:08:57.314Z,76.16
2018-07-19T07:11:26.669Z,74.25
2018-07-19T07:13:56.013Z,75.13
2018-07-19T07:16:25.369Z,75.57
2018-07-19T07:18:54.617Z,75.61
2018-07-19T07:21:23.821Z,76.04
2018-07-19T07:23:52.179Z,76.94
2018-07-19T07:26:21.536Z,76.91
2018-07-19T07:28:49.921Z,76.88
2018-07-19T07:31:19.114Z,77.64
2018-07-19T07:33:49.221Z,76.64
2018-07-19T07:36:19.092Z,76.30
2018-07-19T07:38:49.261Z,76.71
2018-07-19T07:41:18.249Z,76.96
2018-07-19T07:43:47.356Z,77.15
2018-07-19T07:46:15.989Z,77.72
2018-07-19T07:48:44.347Z,77.57
2018-07-19T07:51:12.780Z,77.38
2018-07-19T07:53:42.139Z,76.35
2018-07-19T07:56:12.496Z,76.57
2018-07-19T07:58:41.643Z,76.13
2018-07-19T08:01:10.917Z,74.48
2018-07-19T08:03:40.233Z,74.76
2018-07-19T08:06:09.142Z,74.91
2018-07-19T08:08:37.477Z,73.84
2018-07-19T08:11:06.045Z,73.00
2018-07-19T08:13:34.408Z,73.43
2018-07-19T08:16:03.642Z,73.83
2018-07-19T08:18:32.009Z,74.38
2018-07-19T08:21:01.402Z,76.82
2018-07-19T08:23:29.761Z,74.80
2018-07-19T08:25:58.133Z,73.77
2018-07-19T08:28:26.925Z,75.12
2018-07-19T08:30:55.601Z,75.16
2018-07-19T08:33:24.101Z,74.42
2018-07-19T08:35:52.934Z,76.29
2018-07-19T08:38:21.285Z,77.00
2018-07-19T08:40:50.573Z,76.38
2018-07-19T08:43:19.783Z,77.06
2018-07-19T08:45:49.042Z,78.73
2018-07-19T08:48:19.965Z,79.57
2018-07-19T08:50:49.325Z,80.85
2018-07-19T08:53:17.761Z,81.91
2018-07-19T08:55:46.156Z,82.80
2018-07-19T08:58:14.589Z,84.35
2018-07-19T09:00:42.958Z,85.67
2018-07-19T09:03:12.277Z,84.39
2018-07-19T09:05:41.749Z,86.96
2018-07-19T09:08:10.972Z,86.58
2018-07-19T09:10:40.640Z,86.11
2018-07-19T09:13:10.308Z,87.31
2018-07-19T09:15:40.159Z,86.41
2018-07-19T09:18:10.308Z,87.84
2018-07-19T09:20:40.157Z,87.74
2018-07-19T09:23:09.625Z,88.39
2018-07-19T09:25:38.051Z,90.02
2018-07-19T09:28:06.457Z,90.10
2018-07-19T09:30:34.800Z,92.44
2018-07-19T09:33:03.155Z,92.65
2018-07-19T09:35:31.537Z,92.46
2018-07-19T09:38:00.049Z,93.79
2018-07-19T09:40:29.672Z,92.73
2018-07-19T09:42:58.400Z,93.92
2018-07-19T09:45:27.048Z,92.79
2018-07-19T09:47:55.693Z,92.31
2018-07-19T09:50:24.359Z,89.62
2018-07-19T09:52:52.985Z,89.25
2018-07-19T09:55:21.638Z,90.44
2018-07-19T09:57:50.428Z,87.69
2018-07-19T10:00:25.143Z,88.79
2018-07-19T10:02:53.773Z,90.06
2018-07-19T10:05:22.463Z,85.63
2018-07-19T10:07:51.399Z,87.31
2018-07-19T10:10:20.179Z,82.52
2018-07-19T10:12:49.448Z,82.70
2018-07-19T10:15:19.410Z,82.53
2018-07-19T10:17:49.126Z,82.76
2018-07-19T10:20:19.330Z,80.58
2018-07-19T10:22:49.074Z,77.48
2018-07-19T10:25:18.868Z,75.39
2018-07-19T10:27:48.401Z,75.65
2018-07-19T10:30:18.301Z,73.96
2018-07-19T10:32:48.119Z,74.30
2018-07-19T10:35:16.833Z,74.06
2018-07-19T10:37:45.799Z,75.50
2018-07-19T10:40:14.442Z,72.87
2018-07-19T10:42:43.083Z,71.45
2018-07-19T10:45:12.039Z,70.95
2018-07-19T10:47:40.914Z,72.95
2018-07-19T10:50:10.549Z,74.82
2018-07-19T10:52:40.423Z,72.19
2018-07-19T10:55:10.262Z,74.61
2018-07-19T10:58:43.681Z,75.59
2018-07-19T11:01:12.473Z,74.90
2018-07-19T11:03:41.341Z,76.06
2018-07-19T11:06:10.692Z,75.91
2018-07-19T11:08:39.388Z,74.22
2018-07-19T11:11:09.376Z,74.73
2018-07-19T11:13:37.993Z,72.60
2018-07-19T11:16:06.905Z,73.91
2018-07-19T11:18:35.533Z,73.70
2018-07-19T11:21:05.364Z,75.18
2018-07-19T11:23:34.001Z,72.02
2018-07-19T11:26:03.437Z,72.42
2018-07-19T11:28:32.796Z,72.88
2018-07-19T11:31:02.273Z,71.66
2018-07-19T11:33:31.611Z,73.53
2018-07-19T11:36:01.010Z,73.74
2018-07-19T11:38:30.773Z,72.47
2018-07-19T11:40:59.373Z,72.67
2018-07-19T11:43:28.893Z,72.19
2018-07-19T11:45:58.545Z,75.50
2018-07-19T11:48:28.085Z,75.24
2018-07-19T11:50:57.696Z,74.09
2018-07-19T11:53:27.241Z,74.64
2018-07-19T11:55:56.572Z,72.88
2018-07-19T11:58:26.224Z,73.41
2018-07-19T12:00:55.728Z,74.01
2018-07-19T12:03:25.441Z,72.51
2018-07-19T12:05:54.969Z,71.62
2018-07-19T12:08:24.522Z,71.03
2018-07-19T12:10:54.009Z,71.71
2018-07-19T12:13:22.815Z,71.50
2018-07-19T12:15:52.412Z,70.36
2018-07-19T12:18:21.217Z,67.22
2018-07-19T12:20:51.084Z,66.58
2018-07-19T12:23:22.646Z,65.25
2018-07-19T12:25:51.245Z,65.70
2018-07-19T12:28:21.908Z,64.73
2018-07-19T12:30:50.637Z,64.58
2018-07-19T12:33:20.297Z,65.51
